createdAt,value
2017-10-20T00:01:03.901Z,80.40
2017-10-20T00:03:31.412Z,80.10
2017-10-20T00:05:58.899Z,79.90
2017-10-20T00:08:26.400Z,79.70
2017-10-20T00:10:54.654Z,79.80
2017-10-20T00:13:22.909Z,79.80
2017-10-20T00:15:50.408Z,79.70
2017-10-20T00:18:18.648Z,79.50
2017-10-20T00:20:46.132Z,79.50
2017-10-20T00:23:14.401Z,78.60
2017-10-20T00:25:41.868Z,78.60
2017-10-20T00:28:09.448Z,78.30
2017-10-20T00:30:37.690Z,78.00
2017-10-20T00:33:05.185Z,78.00
2017-10-20T00:35:33.436Z,78.10
2017-10-20T00:38:00.920Z,78.10
2017-10-20T00:40:28.424Z,78.20
2017-10-20T00:42:55.900Z,78.00
2017-10-20T00:45:23.383Z,77.90
2017-10-20T00:47:51.646Z,77.90
2017-10-20T00:50:19.909Z,78.30
2017-10-20T00:52:47.400Z,78.30
2017-10-20T00:55:15.665Z,78.00
2017-10-20T00:57:43.920Z,78.30
2017-10-20T01:00:11.402Z,78.20
2017-10-20T01:02:39.644Z,78.70
2017-10-20T01:05:07.135Z,78.50
2017-10-20T01:07:35.378Z,79.00
2017-10-20T01:10:02.877Z,79.00
2017-10-20T01:12:31.136Z,78.60
2017-10-20T01:14:58.635Z,78.50
2017-10-20T01:17:26.120Z,78.50
2017-10-20T01:19:53.599Z,78.20
2017-10-20T01:22:21.084Z,78.10
2017-10-20T01:24:49.339Z,78.20
2017-10-20T01:27:16.829Z,78.30
2017-10-20T01:29:45.101Z,78.20
2017-10-20T01:32:13.340Z,77.90
2017-10-20T01:34:40.817Z,77.80
2017-10-20T01:37:08.315Z,77.60
2017-10-20T01:39:35.788Z,77.80
2017-10-20T01:42:03.285Z,77.50
2017-10-20T01:44:32.267Z,77.60
2017-10-20T01:46:59.744Z,77.60
2017-10-20T01:49:27.229Z,77.30
2017-10-20T01:51:54.704Z,77.90
2017-10-20T01:54:22.197Z,77.90
2017-10-20T01:56:49.679Z,77.90
2017-10-20T01:59:17.143Z,77.70
2017-10-20T02:01:45.412Z,76.90
2017-10-20T02:04:12.914Z,76.80
2017-10-20T02:06:40.427Z,76.30
2017-10-20T02:09:07.898Z,76.20
2017-10-20T02:11:36.132Z,75.30
2017-10-20T02:14:03.628Z,75.20
2017-10-20T02:16:31.884Z,75.00
2017-10-20T02:18:59.400Z,74.90
2017-10-20T02:21:26.875Z,75.00
2017-10-20T02:23:54.366Z,75.30
2017-10-20T02:26:21.853Z,75.00
2017-10-20T02:28:50.124Z,74.70
2017-10-20T02:31:18.384Z,74.10
2017-10-20T02:33:46.675Z,74.30
2017-10-20T02:36:14.925Z,73.70
2017-10-20T02:38:42.412Z,73.60
2017-10-20T02:41:10.648Z,73.70
2017-10-20T02:43:38.146Z,73.70
2017-10-20T02:46:06.391Z,73.30
2017-10-20T02:48:33.896Z,73.10
2017-10-20T02:51:01.391Z,73.20
2017-10-20T02:53:28.895Z,72.00
2017-10-20T02:55:57.153Z,72.30
2017-10-20T02:58:24.632Z,72.30
2017-10-20T03:00:52.876Z,72.80
2017-10-20T03:03:20.378Z,72.70
2017-10-20T03:05:48.633Z,72.70
2017-10-20T03:08:16.908Z,73.40
2017-10-20T03:10:46.064Z,73.30
2017-10-20T03:13:13.531Z,72.70
2017-10-20T03:15:41.027Z,72.40
2017-10-20T03:18:09.268Z,72.40
2017-10-20T03:20:36.770Z,72.40
2017-10-20T03:23:05.012Z,72.10
2017-10-20T03:25:32.486Z,72.10
2017-10-20T03:28:00.755Z,72.10
2017-10-20T03:30:29.753Z,71.50
2017-10-20T03:32:58.827Z,71.70
2017-10-20T03:35:26.305Z,71.80
2017-10-20T03:37:55.288Z,71.90
2017-10-20T03:40:22.780Z,71.80
2017-10-20T03:42:51.023Z,72.10
2017-10-20T03:45:18.516Z,72.10
2017-10-20T03:47:46.769Z,72.00
2017-10-20T03:50:15.768Z,72.60
2017-10-20T03:52:44.751Z,72.60
2017-10-20T03:55:12.264Z,72.50
2017-10-20T03:57:39.770Z,72.90
2017-10-20T04:00:07.250Z,72.50
2017-10-20T04:02:35.798Z,72.80
2017-10-20T04:05:03.278Z,72.80
2017-10-20T04:07:30.767Z,72.80
2017-10-20T04:09:58.277Z,74.20
2017-10-20T04:12:25.751Z,73.70
2017-10-20T04:14:53.315Z,73.30
2017-10-20T04:17:20.787Z,73.90
2017-10-20T04:19:49.045Z,75.70
2017-10-20T04:22:16.612Z,75.60
2017-10-20T04:24:44.872Z,75.80
2017-10-20T04:27:12.367Z,75.80
2017-10-20T04:29:39.862Z,77.20
2017-10-20T04:32:07.343Z,77.20
2017-10-20T04:34:34.839Z,77.90
2017-10-20T04:37:03.080Z,79.80
2017-10-20T04:39:30.597Z,79.80
2017-10-20T04:41:58.072Z,79.70
2017-10-20T04:44:25.548Z,79.50
2017-10-20T04:46:53.052Z,79.40
2017-10-20T04:49:21.307Z,78.50
2017-10-20T04:51:48.817Z,78.40
2017-10-20T04:54:16.293Z,79.00
2017-10-20T04:56:43.768Z,78.70
2017-10-20T04:59:11.264Z,78.50
2017-10-20T05:01:38.817Z,79.90
2017-10-20T05:04:07.077Z,81.90
2017-10-20T05:06:34.576Z,81.80
2017-10-20T05:09:02.057Z,81.30
2017-10-20T05:11:29.557Z,82.00
2017-10-20T05:13:57.799Z,83.60
2017-10-20T05:16:25.295Z,82.90
2017-10-20T05:18:52.776Z,82.70
2017-10-20T05:21:20.259Z,83.50
2017-10-20T05:23:47.748Z,83.90
2017-10-20T05:26:15.241Z,83.60
2017-10-20T05:28:42.752Z,83.90
2017-10-20T05:31:10.235Z,84.30
2017-10-20T05:33:38.476Z,84.90
2017-10-20T05:36:05.978Z,85.00
2017-10-20T05:38:34.224Z,85.40
2017-10-20T05:41:01.711Z,85.40
2017-10-20T05:43:29.952Z,87.30
2017-10-20T05:45:57.422Z,87.30
2017-10-20T05:48:24.967Z,88.10
2017-10-20T05:50:52.446Z,88.20
2017-10-20T05:53:21.442Z,88.70
2017-10-20T05:55:50.459Z,88.90
2017-10-20T05:58:18.695Z,89.50
2017-10-20T06:00:46.184Z,89.50
2017-10-20T06:03:14.457Z,89.90
2017-10-20T06:05:41.943Z,89.80
2017-10-20T06:08:09.423Z,90.30
2017-10-20T06:10:36.896Z,89.40
2017-10-20T06:13:04.408Z,90.10
2017-10-20T06:15:32.651Z,90.50
2017-10-20T06:18:00.141Z,90.20
2017-10-20T06:20:28.375Z,90.20
2017-10-20T06:22:55.848Z,90.20
2017-10-20T06:25:24.844Z,89.70
2017-10-20T06:27:53.127Z,88.70
2017-10-20T06:30:20.620Z,88.70
2017-10-20T06:32:48.097Z,88.10
2017-10-20T06:35:15.563Z,88.60
2017-10-20T06:37:43.055Z,88.90
2017-10-20T06:40:11.296Z,89.30
2017-10-20T06:42:38.804Z,89.30
2017-10-20T06:45:07.041Z,89.40
2017-10-20T06:47:34.516Z,89.40
2017-10-20T06:50:02.010Z,89.60
2017-10-20T06:52:30.248Z,89.40
2017-10-20T06:54:57.767Z,89.40
2017-10-20T06:57:25.252Z,89.20
2017-10-20T06:59:52.732Z,88.70
2017-10-20T07:02:21.720Z,88.40
2017-10-20T07:04:49.193Z,88.30
2017-10-20T07:07:17.456Z,87.00
2017-10-20T07:09:44.937Z,87.00
2017-10-20T07:12:13.344Z,87.80
2017-10-20T07:14:40.875Z,87.70
2017-10-20T07:17:09.128Z,87.40
2017-10-20T07:19:38.216Z,87.40
2017-10-20T07:22:05.701Z,87.80
2017-10-20T07:24:33.940Z,87.20
2017-10-20T07:27:01.429Z,87.10
2017-10-20T07:29:28.899Z,87.10
2017-10-20T07:31:57.292Z,87.10
2017-10-20T07:34:24.767Z,87.00
2017-10-20T07:36:52.264Z,87.00
2017-10-20T07:39:19.853Z,86.60
2017-10-20T07:41:48.113Z,86.60
2017-10-20T07:44:16.363Z,86.90
2017-10-20T07:46:43.847Z,87.00
2017-10-20T07:49:11.319Z,86.40
2017-10-20T07:51:39.587Z,86.30
2017-10-20T07:54:07.099Z,86.20
2017-10-20T07:56:34.722Z,86.30
2017-10-20T07:59:02.976Z,86.00
2017-10-20T08:01:30.463Z,86.00
2017-10-20T08:03:58.724Z,85.60
2017-10-20T08:06:26.211Z,85.60
2017-10-20T08:08:54.623Z,85.60
2017-10-20T08:11:22.111Z,85.80
2017-10-20T08:13:49.611Z,85.60
2017-10-20T08:16:17.116Z,86.10
2017-10-20T08:18:44.596Z,85.40
2017-10-20T08:21:12.127Z,85.30
2017-10-20T08:23:39.635Z,85.60
2017-10-20T08:26:07.136Z,85.30
2017-10-20T08:28:34.621Z,85.10
2017-10-20T08:31:02.151Z,84.60
2017-10-20T08:33:30.475Z,84.20
2017-10-20T08:35:58.765Z,84.40
2017-10-20T08:38:27.011Z,83.40
2017-10-20T08:40:54.500Z,83.30
2017-10-20T08:43:22.741Z,83.30
2017-10-20T08:45:50.258Z,83.30
2017-10-20T08:48:17.736Z,82.80
2017-10-20T08:50:45.249Z,82.90
2017-10-20T08:53:13.506Z,83.50
2017-10-20T08:55:40.984Z,83.40
2017-10-20T08:58:09.247Z,88.20
2017-10-20T09:00:37.521Z,90.10
2017-10-20T09:03:05.000Z,89.70
2017-10-20T09:05:33.268Z,90.90
2017-10-20T09:08:01.503Z,90.80
2017-10-20T09:10:29.017Z,91.10
2017-10-20T09:12:56.592Z,90.80
2017-10-20T09:15:24.113Z,91.10
2017-10-20T09:17:52.371Z,90.90
2017-10-20T09:20:19.863Z,90.90
2017-10-20T09:22:48.129Z,90.50
2017-10-20T09:25:16.412Z,90.30
2017-10-20T09:27:44.659Z,90.20
2017-10-20T09:30:12.145Z,90.20
2017-10-20T09:32:40.385Z,90.40
2017-10-20T09:35:07.876Z,90.40
2017-10-20T09:37:36.138Z,89.60
2017-10-20T09:40:04.408Z,90.10
2017-10-20T09:42:32.675Z,89.80
2017-10-20T09:45:00.155Z,89.80
2017-10-20T09:47:27.654Z,90.00
2017-10-20T09:49:55.128Z,88.10
2017-10-20T09:52:22.599Z,87.90
2017-10-20T09:54:50.092Z,85.60
2017-10-20T09:57:18.332Z,81.70
2017-10-20T09:59:45.847Z,81.60
2017-10-20T10:02:13.319Z,81.60
2017-10-20T10:04:40.796Z,80.60
2017-10-20T10:07:08.296Z,78.50
2017-10-20T10:09:35.803Z,77.70
2017-10-20T10:12:03.300Z,74.50
2017-10-20T10:14:30.806Z,73.50
2017-10-20T10:16:58.272Z,72.50
2017-10-20T10:19:25.832Z,71.40
2017-10-20T10:21:53.304Z,72.80
2017-10-20T10:24:20.813Z,71.50
2017-10-20T10:26:49.063Z,69.60
2017-10-20T10:29:16.541Z,69.60
2017-10-20T10:31:44.816Z,70.00
2017-10-20T10:34:12.323Z,70.00
2017-10-20T10:36:39.832Z,69.50
2017-10-20T10:39:07.309Z,68.70
2017-10-20T10:41:35.564Z,68.40
2017-10-20T10:44:03.857Z,68.90
2017-10-20T10:46:32.112Z,69.10
2017-10-20T10:49:01.112Z,68.70
2017-10-20T10:51:28.625Z,68.60
2017-10-20T10:53:56.114Z,67.90
2017-10-20T10:56:23.607Z,67.60
2017-10-20T10:58:51.879Z,65.90
2017-10-20T11:01:20.145Z,66.00
2017-10-20T11:03:50.103Z,65.90
2017-10-20T11:06:29.552Z,65.40
2017-10-20T11:09:09.096Z,66.00
2017-10-20T11:11:48.577Z,65.90
2017-10-20T11:14:17.584Z,64.60
2017-10-20T11:16:45.843Z,63.00
2017-10-20T11:19:13.337Z,62.90
2017-10-20T11:21:40.814Z,63.30
2017-10-20T11:24:08.303Z,64.30
2017-10-20T11:26:35.800Z,62.40
2017-10-20T11:29:04.044Z,61.80
2017-10-20T11:31:31.533Z,61.60
2017-10-20T11:33:59.800Z,61.10
2017-10-20T11:36:28.071Z,61.90
2017-10-20T11:38:55.544Z,61.50
2017-10-20T11:41:23.811Z,59.50
2017-10-20T11:43:51.291Z,59.50
2017-10-20T11:46:19.532Z,59.80
2017-10-20T11:48:47.791Z,59.30
2017-10-20T11:51:15.284Z,59.30
2017-10-20T11:53:43.568Z,59.80
2017-10-20T11:56:11.832Z,59.40
2017-10-20T11:58:39.308Z,59.30
2017-10-20T12:01:07.581Z,61.20
2017-10-20T12:03:35.820Z,59.50
2017-10-20T12:06:03.315Z,59.50
2017-10-20T12:08:31.576Z,60.00
2017-10-20T12:10:59.077Z,60.00
2017-10-20T12:13:26.580Z,59.90
2017-10-20T12:15:54.049Z,58.90
2017-10-20T12:18:21.524Z,59.00
2017-10-20T12:20:49.787Z,60.40
2017-10-20T12:23:18.040Z,59.70
2017-10-20T12:25:45.531Z,59.60
2017-10-20T12:28:13.768Z,57.50
2017-10-20T12:30:41.263Z,57.50
2017-10-20T12:33:08.784Z,56.60
2017-10-20T12:35:36.256Z,56.50
2017-10-20T12:38:03.764Z,56.70
2017-10-20T12:40:31.236Z,56.00
2017-10-20T12:42:58.712Z,56.70
2017-10-20T12:45:26.236Z,55.40
2017-10-20T12:47:53.713Z,55.90
2017-10-20T12:50:21.219Z,54.80
2017-10-20T12:52:48.687Z,55.10
2017-10-20T12:55:16.932Z,53.80
2017-10-20T12:57:44.433Z,53.80
2017-10-20T13:00:12.677Z,54.30
2017-10-20T13:02:40.168Z,54.40
2017-10-20T13:05:08.409Z,55.30
2017-10-20T13:07:35.881Z,55.30
2017-10-20T13:10:03.396Z,55.70
2017-10-20T13:12:30.876Z,55.70
2017-10-20T13:14:58.375Z,56.50
2017-10-20T13:17:26.615Z,54.60
2017-10-20T13:19:54.124Z,54.50
2017-10-20T13:22:21.607Z,54.90
2017-10-20T13:24:49.076Z,53.80
2017-10-20T13:27:16.683Z,54.00
2017-10-20T13:29:44.930Z,53.30
2017-10-20T13:32:12.421Z,53.30
2017-10-20T13:34:40.687Z,53.70
2017-10-20T13:37:08.155Z,53.60
2017-10-20T13:39:36.445Z,54.70
2017-10-20T13:42:04.690Z,55.40
2017-10-20T13:44:32.164Z,55.40
2017-10-20T13:47:00.417Z,56.10
2017-10-20T13:49:27.912Z,56.10
2017-10-20T13:51:56.209Z,57.00
2017-10-20T13:54:23.681Z,57.00
2017-10-20T13:56:51.201Z,56.90
2017-10-20T13:59:18.655Z,56.80
2017-10-20T14:01:46.892Z,56.10
2017-10-20T14:04:14.396Z,56.00
2017-10-20T14:06:42.644Z,56.80
2017-10-20T14:09:10.884Z,56.70
2017-10-20T14:11:38.396Z,56.70
2017-10-20T14:14:06.637Z,56.70
2017-10-20T14:16:34.148Z,56.70
2017-10-20T14:19:01.632Z,57.00
2017-10-20T14:21:29.148Z,56.70
2017-10-20T14:23:57.400Z,57.10
2017-10-20T14:26:24.890Z,57.10
2017-10-20T14:28:53.148Z,57.20
2017-10-20T14:31:21.443Z,57.60
2017-10-20T14:33:49.710Z,57.70
2017-10-20T14:36:17.236Z,57.60
2017-10-20T14:38:44.739Z,57.40
2017-10-20T14:41:12.999Z,57.70
2017-10-20T14:43:41.243Z,57.80
2017-10-20T14:46:08.725Z,57.80
2017-10-20T14:48:36.215Z,57.70
2017-10-20T14:51:04.475Z,58.00
2017-10-20T14:53:32.736Z,58.40
2017-10-20T14:56:01.725Z,58.30
2017-10-20T14:58:29.979Z,58.10
2017-10-20T15:00:57.486Z,58.10
2017-10-20T15:03:25.739Z,58.40
2017-10-20T15:05:54.006Z,58.70
2017-10-20T15:08:21.497Z,58.70
2017-10-20T15:10:49.766Z,58.90
2017-10-20T15:13:18.046Z,58.80
2017-10-20T15:15:46.360Z,59.00
2017-10-20T15:18:13.840Z,59.00
2017-10-20T15:20:41.331Z,59.00
2017-10-20T15:23:08.839Z,59.30
2017-10-20T15:25:36.320Z,59.30
2017-10-20T15:28:03.854Z,59.00
2017-10-20T15:30:31.412Z,59.10
2017-10-20T15:32:58.906Z,59.50
2017-10-20T15:35:26.400Z,58.90
2017-10-20T15:37:54.650Z,59.50
2017-10-20T15:40:22.134Z,59.40
2017-10-20T15:42:50.391Z,59.70
2017-10-20T15:45:17.864Z,59.70
2017-10-20T15:47:46.106Z,59.90
2017-10-20T15:50:13.595Z,59.90
2017-10-20T15:52:41.871Z,60.20
2017-10-20T15:55:10.113Z,60.80
2017-10-20T15:57:37.611Z,60.80
2017-10-20T16:00:05.870Z,61.50
2017-10-20T16:02:34.198Z,61.60
2017-10-20T16:05:01.674Z,61.60
2017-10-20T16:07:29.140Z,62.00
2017-10-20T16:09:56.637Z,62.60
2017-10-20T16:12:24.928Z,63.50
2017-10-20T16:14:53.184Z,64.20
2017-10-20T16:17:20.655Z,64.20
2017-10-20T16:19:48.903Z,65.10
2017-10-20T16:22:16.414Z,65.00
2017-10-20T16:24:43.903Z,65.50
2017-10-20T16:27:11.431Z,66.50
2017-10-20T16:29:38.932Z,66.50
2017-10-20T16:32:06.410Z,66.50
2017-10-20T16:34:33.900Z,66.10
2017-10-20T16:37:01.471Z,66.80
2017-10-20T16:39:28.988Z,66.50
2017-10-20T16:41:57.239Z,67.00
2017-10-20T16:44:24.735Z,67.00
2017-10-20T16:46:52.325Z,67.00
2017-10-20T16:49:19.818Z,67.50
2017-10-20T16:51:47.352Z,67.60
2017-10-20T16:54:14.840Z,67.70
2017-10-20T16:56:42.317Z,68.40
2017-10-20T16:59:10.569Z,68.90
2017-10-20T17:01:38.048Z,68.90
2017-10-20T17:04:06.327Z,69.30
2017-10-20T17:06:34.633Z,69.80
2017-10-20T17:09:02.108Z,69.80
2017-10-20T17:11:29.600Z,70.00
2017-10-20T17:13:57.093Z,70.30
2017-10-20T17:16:25.406Z,70.50
2017-10-20T17:18:52.876Z,70.50
2017-10-20T17:21:20.372Z,70.80
2017-10-20T17:23:48.624Z,70.50
2017-10-20T17:26:16.097Z,70.50
2017-10-20T17:28:43.608Z,71.00
2017-10-20T17:31:11.110Z,70.90
2017-10-20T17:33:39.411Z,71.20
2017-10-20T17:36:07.679Z,71.30
2017-10-20T17:38:35.153Z,71.30
2017-10-20T17:41:02.701Z,71.40
2017-10-20T17:43:30.210Z,71.40
2017-10-20T17:45:57.690Z,71.20
2017-10-20T17:48:25.203Z,71.50
2017-10-20T17:50:53.440Z,70.80
2017-10-20T17:53:20.939Z,70.80
2017-10-20T17:55:48.418Z,70.80
2017-10-20T17:58:15.913Z,70.60
2017-10-20T18:00:44.173Z,71.40
2017-10-20T18:03:11.655Z,70.70
2017-10-20T18:05:39.162Z,70.60
2017-10-20T18:08:06.648Z,70.40
2017-10-20T18:10:34.180Z,70.00
2017-10-20T18:13:01.676Z,69.90
2017-10-20T18:15:29.161Z,70.20
2017-10-20T18:17:57.446Z,69.50
2017-10-20T18:20:25.692Z,69.20
2017-10-20T18:22:53.171Z,69.20
2017-10-20T18:25:21.439Z,69.50
2017-10-20T18:27:49.694Z,69.90
2017-10-20T18:30:17.449Z,69.80
2017-10-20T18:32:44.927Z,69.40
2017-10-20T18:35:12.408Z,69.50
2017-10-20T18:37:40.847Z,69.60
2017-10-20T18:40:08.324Z,69.60
2017-10-20T18:42:35.858Z,69.50
2017-10-20T18:45:03.359Z,69.50
2017-10-20T18:47:31.603Z,69.40
2017-10-20T18:49:59.099Z,69.00
2017-10-20T18:52:27.374Z,69.70
2017-10-20T18:54:55.663Z,68.80
2017-10-20T18:57:23.927Z,68.20
2017-10-20T18:59:52.207Z,68.40
2017-10-20T19:02:19.804Z,68.40
2017-10-20T19:04:47.299Z,68.00
2017-10-20T19:07:14.808Z,67.90
2017-10-20T19:09:42.280Z,67.90
2017-10-20T19:12:09.775Z,68.10
2017-10-20T19:14:37.259Z,67.60
2017-10-20T19:17:05.507Z,67.40
2017-10-20T19:19:33.004Z,67.20
2017-10-20T19:22:01.249Z,66.80
2017-10-20T19:24:28.734Z,66.70
2017-10-20T19:26:57.009Z,66.50
2017-10-20T19:29:25.287Z,66.70
2017-10-20T19:31:53.567Z,67.00
2017-10-20T19:34:21.155Z,66.90
2017-10-20T19:36:48.636Z,66.70
2017-10-20T19:39:16.120Z,67.00
2017-10-20T19:41:43.700Z,67.40
2017-10-20T19:44:12.009Z,67.20
2017-10-20T19:46:39.480Z,67.20
2017-10-20T19:49:06.952Z,67.60
2017-10-20T19:51:34.442Z,67.40
2017-10-20T19:54:02.700Z,68.40
2017-10-20T19:56:30.202Z,68.40
2017-10-20T19:58:57.685Z,68.00
2017-10-20T20:01:25.165Z,68.30
2017-10-20T20:03:52.663Z,68.40
2017-10-20T20:06:20.961Z,68.60
2017-10-20T20:08:48.464Z,68.50
2017-10-20T20:11:15.949Z,68.60
2017-10-20T20:13:44.205Z,69.10
2017-10-20T20:16:11.790Z,69.10
2017-10-20T20:18:40.037Z,69.60
2017-10-20T20:21:07.559Z,69.70
2017-10-20T20:23:35.068Z,70.00
2017-10-20T20:26:02.550Z,69.80
2017-10-20T20:28:30.803Z,70.30
2017-10-20T20:30:58.302Z,70.30
2017-10-20T20:33:30.275Z,70.70
2017-10-20T20:35:57.764Z,70.90
2017-10-20T20:38:25.265Z,70.90
2017-10-20T20:40:53.501Z,71.40
2017-10-20T20:43:20.988Z,71.40
2017-10-20T20:45:49.276Z,71.70
2017-10-20T20:48:17.507Z,72.20
2017-10-20T20:50:45.041Z,72.00
2017-10-20T20:53:12.541Z,71.80
2017-10-20T20:55:40.019Z,71.80
2017-10-20T20:58:09.026Z,72.10
2017-10-20T21:00:37.307Z,72.30
2017-10-20T21:03:04.834Z,72.20
2017-10-20T21:05:32.307Z,72.70
2017-10-20T21:08:00.564Z,72.20
2017-10-20T21:10:28.087Z,72.20
2017-10-20T21:12:55.603Z,72.20
2017-10-20T21:15:23.863Z,72.40
2017-10-20T21:17:51.340Z,72.30
2017-10-20T21:20:19.589Z,72.50
2017-10-20T21:22:47.116Z,72.50
2017-10-20T21:25:14.594Z,72.40
2017-10-20T21:27:42.083Z,72.20
2017-10-20T21:30:10.324Z,72.90
2017-10-20T21:32:37.797Z,72.20
2017-10-20T21:35:05.300Z,72.20
2017-10-20T21:37:32.787Z,72.60
2017-10-20T21:40:00.296Z,72.40
2017-10-20T21:42:28.528Z,72.70
2017-10-20T21:44:56.004Z,72.60
2017-10-20T21:47:23.512Z,73.30
2017-10-20T21:49:51.059Z,73.40
2017-10-20T21:52:19.322Z,73.40
2017-10-20T21:54:46.822Z,73.40
2017-10-20T21:57:14.385Z,73.90
2017-10-20T21:59:41.907Z,73.10
2017-10-20T22:02:10.152Z,73.10
2017-10-20T22:04:37.643Z,73.00
2017-10-20T22:07:05.955Z,73.30
2017-10-20T22:09:33.426Z,73.20
2017-10-20T22:12:00.974Z,73.30
2017-10-20T22:14:28.446Z,73.30
2017-10-20T22:16:55.933Z,73.40
2017-10-20T22:19:23.406Z,73.40
2017-10-20T22:21:50.927Z,73.50
2017-10-20T22:24:18.419Z,73.80
2017-10-20T22:26:45.892Z,73.60
2017-10-20T22:29:14.151Z,73.40
2017-10-20T22:31:41.627Z,73.30
2017-10-20T22:34:09.868Z,73.60
2017-10-20T22:36:37.358Z,73.60
2017-10-20T22:39:05.605Z,74.00
2017-10-20T22:41:33.104Z,73.30
2017-10-20T22:44:01.346Z,73.40
2017-10-20T22:46:29.603Z,73.40
2017-10-20T22:48:57.116Z,73.20
2017-10-20T22:51:25.430Z,73.20
2017-10-20T22:53:52.974Z,73.10
2017-10-20T22:56:20.445Z,73.40
2017-10-20T22:58:47.938Z,73.40
2017-10-20T23:01:15.415Z,73.50
2017-10-20T23:03:43.672Z,73.30
2017-10-20T23:06:11.181Z,73.30
2017-10-20T23:08:38.664Z,73.60
2017-10-20T23:11:06.140Z,73.30
2017-10-20T23:13:33.724Z,73.30
2017-10-20T23:16:01.955Z,73.90
2017-10-20T23:18:29.452Z,73.10
2017-10-20T23:20:57.688Z,72.80
2017-10-20T23:23:25.162Z,73.10
2017-10-20T23:25:52.664Z,73.30
2017-10-20T23:28:20.905Z,73.40
2017-10-20T23:30:48.401Z,73.40
2017-10-20T23:33:15.879Z,73.10
2017-10-20T23:35:43.347Z,73.20
2017-10-20T23:38:10.839Z,73.30
2017-10-20T23:40:38.308Z,73.40
2017-10-20T23:43:05.800Z,73.60
2017-10-20T23:45:33.283Z,73.50
2017-10-20T23:48:00.760Z,73.50
2017-10-20T23:50:28.257Z,73.40
2017-10-20T23:52:56.500Z,73.60
2017-10-20T23:55:23.994Z,73.50
2017-10-20T23:57:52.236Z,73.50
